Time;durP1;ratioP1;P1;durP2;ratioP2;P2;SDS_P1;SDS_P2;PMS_P1;PMS_P2;Temp;Humidity;BMP_temperature;BMP_pressure;BME280_temperature;BME280_humidity;BME280_pressure;Samples;Min_cycle;Max_cycle;Signal;HPM_P1;HPM_P2
2022/02/10 00:20:55;;;;;;;9.98;4.78;;;;;;;13.75;47.00;101926.34;5036725;28;20033;-63
2022/02/10 00:34:10;;;;;;;9.98;5.53;;;;;;;13.68;46.21;101925.97;5055054;28;20028;-63
2022/02/10 00:34:16;;;;;;;6.80;3.05;;;;;;;13.54;46.04;101926.19;5056791;28;20036;-63
2022/02/10 00:36:53;;;;;;;7.97;4.65;;;;;;;13.51;46.34;101925.59;5056873;28;20036;-63
2022/02/10 00:40:20;;;;;;;6.70;4.45;;;;;;;13.40;46.66;101913.84;5056917;28;20060;-63
2022/02/10 00:42:12;;;;;;;9.50;4.95;;;;;;;13.42;46.10;101919.13;5039119;28;20132;-63
2022/02/10 00:44:38;;;;;;;8.13;4.97;;;;;;;13.43;46.41;101919.97;5038859;28;20078;-63
2022/02/10 00:47:03;;;;;;;10.95;5.15;;;;;;;13.40;46.52;101913.84;5057008;28;20040;-63
2022/02/10 00:49:29;;;;;;;16.13;5.85;;;;;;;13.36;46.81;101901.63;5056814;28;20050;-63
2022/02/10 00:51:55;;;;;;;14.25;5.82;;;;;;;13.39;46.82;101909.44;5056334;28;20053;-63
2022/02/10 00:54:24;;;;;;;13.70;5.78;;;;;;;13.38;46.78;101896.97;5038903;28;20021;-63
2022/02/10 00:56:50;;;;;;;13.10;6.30;;;;;;;13.40;46.40;101900.38;5056347;28;20098;-63
2022/02/10 00:59:33;;;;;;;12.27;6.07;;;;;;;13.40;46.13;101889.59;5056154;28;20068;-63
2022/02/10 01:31:40;;;;;;;9.23;5.00;;;;;;;13.43;46.28;101847.31;5055832;28;20051;-63
2022/02/10 01:34:05;;;;;;;20.02;6.05;;;;;;;13.43;47.02;101850.00;5038273;28;20044;-63
2022/02/10 01:36:30;;;;;;;10.38;5.57;;;;;;;13.46;46.24;101844.34;5055240;28;20055;-63
2022/02/10 01:38:56;;;;;;;10.23;5.97;;;;;;;13.46;47.32;101841.66;5037207;28;20024;-63
2022/02/10 02:05:45;;;;;;;14.55;5.97;;;;;;;13.27;46.37;101810.84;5039990;28;20031;-63
2022/02/10 02:08:11;;;;;;;11.15;6.00;;;;;;;13.22;46.38;101804.97;5038340;28;20016;-63
2022/02/10 02:10:36;;;;;;;12.05;6.15;;;;;;;13.23;46.63;101803.97;5037460;28;20386;-63
2022/02/10 02:13:03;;;;;;;15.20;6.68;;;;;;;13.21;46.28;101795.19;5055298;28;20031;-63
2022/02/10 02:15:29;;;;;;;15.70;6.35;;;;;;;13.18;46.49;101792.75;5055305;28;20028;-63
2022/02/10 02:17:54;;;;;;;9.77;5.75;;;;;;;13.17;47.39;101796.44;5054988;28;20025;-63
2022/02/10 02:20:20;;;;;;;13.02;6.47;;;;;;;13.13;47.01;101786.88;5054733;28;20082;-63
2022/02/10 02:22:45;;;;;;;13.55;5.95;;;;;;;13.13;47.12;101781.50;5054879;28;20116;-63
2022/02/10 02:25:11;;;;;;;14.10;6.57;;;;;;;13.12;47.26;101782.47;5037132;28;20107;-63
2022/02/10 02:27:48;;;;;;;12.27;6.20;;;;;;;13.10;47.30;101779.03;5055042;28;20021;-63
2022/02/10 02:30:20;;;;;;;9.23;5.70;;;;;;;13.08;46.24;101775.63;5037175;28;20395;-63
2022/02/10 02:33:06;;;;;;;8.77;5.47;;;;;;;13.05;46.81;101774.97;5054743;28;20479;-63
2022/02/10 02:36:36;;;;;;;13.20;5.60;;;;;;;13.00;46.33;101763.72;5054403;28;20031;-63
2022/02/10 03:05:58;;;;;;;11.85;5.60;;;;;;;12.45;46.22;101703.53;5039153;28;20105;-63
2022/02/10 03:08:20;;;;;;;14.48;4.75;;;;;;;12.43;46.27;101701.97;5052599;28;20033;-63
2022/02/10 03:13:20;;;;;;;9.50;5.85;;;;;;;12.39;46.05;101695.13;5054066;28;20050;-63
2022/02/10 04:09:50;;;;;;;6.88;4.57;;;;;;;12.39;46.87;101706.75;5057323;28;20490;-63
2022/02/10 04:12:39;;;;;;;8.35;5.13;;;;;;;12.44;47.21;101704.53;5056997;28;20032;-63
2022/02/10 04:23:12;;;;;;;12.18;4.78;;;;;;;12.63;46.88;101706.63;5057581;28;20037;-63
2022/02/10 04:30:58;;;;;;;6.35;4.45;;;;;;;12.75;47.34;101725.34;5039044;28;20017;-63
2022/02/10 04:57:57;;;;;;;12.75;5.57;;;;;;;13.04;46.95;101717.63;5041429;28;20106;-63
2022/02/10 05:00:38;;;;;;;9.35;4.78;;;;;;;13.08;46.79;101708.38;5056689;28;20483;-63
2022/02/10 05:17:05;;;;;;;7.82;5.22;;;;;;;13.19;47.17;101697.59;5056070;28;20028;-63
2022/02/10 05:35:36;;;;;;;8.95;4.55;;;;;;;13.32;47.50;101675.91;5055779;28;20017;-63
2022/02/10 05:38:13;;;;;;;8.55;4.55;;;;;;;13.34;47.91;101674.81;5055916;28;20025;-63
2022/02/10 05:59:45;;;;;;;8.05;4.38;;;;;;;13.49;47.65;101659.25;5055529;28;20116;-63
2022/02/10 07:57:35;;;;;;;25.38;8.90;;;;;;;13.77;47.71;101768.19;4998442;28;20040;-63
2022/02/10 08:55:03;;;;;;;8.88;5.05;;;;;;;14.70;49.08;101763.88;5041695;28;20048;-63
2022/02/10 08:57:46;;;;;;;6.07;3.35;;;;;;;14.73;49.31;101769.84;5039033;28;20429;-63
2022/02/10 09:05:47;;;;;;;8.75;3.60;;;;;;;14.81;47.52;101769.19;5056661;28;20032;-63
2022/02/10 09:16:32;;;;;;;8.18;4.13;;;;;;;14.93;48.82;101760.03;5056267;28;20017;-63
2022/02/10 09:52:27;;;;;;;12.68;6.00;;;;;;;15.44;49.30;101793.19;5055602;28;20107;-63
2022/02/10 09:57:37;;;;;;;15.38;5.97;;;;;;;15.47;47.66;101798.34;5055646;28;20115;-63
2022/02/10 10:02:46;;;;;;;12.07;6.75;;;;;;;15.45;48.44;101799.44;5000581;28;20041;-63
2022/02/10 10:05:36;;;;;;;14.15;5.75;;;;;;;15.43;48.65;101804.13;5055324;28;20021;-63
2022/02/10 10:11:26;;;;;;;11.20;5.60;;;;;;;15.28;48.11;101809.03;5055293;28;20033;-63
2022/02/10 10:14:08;;;;;;;11.70;5.57;;;;;;;15.19;49.90;101815.25;5054476;28;20021;-63
2022/02/10 10:19:42;;;;;;;13.65;5.53;;;;;;;15.12;49.43;101825.75;5054726;28;20048;-63
2022/02/10 10:25:15;;;;;;;16.38;5.70;;;;;;;15.15;48.64;101824.63;5055082;28;20029;-63
2022/02/10 10:51:13;;;;;;;10.68;4.85;;;;;;;15.14;50.39;101844.50;5054301;28;20573;-63
2022/02/10 10:58:43;;;;;;;14.02;5.03;;;;;;;15.19;49.62;101834.13;5054358;28;20039;-63
2022/02/10 11:41:46;;;;;;;12.55;5.60;;;;;;;15.21;50.70;101829.47;5053704;28;20064;-63
2022/02/10 12:42:14;;;;;;;7.00;2.42;;;;;;;15.45;50.82;101834.56;5021276;28;20509;-63
2022/02/10 14:14:18;;;;;;;20.08;7.90;;;;;;;16.60;49.18;101854.63;5055043;28;20033;-63
2022/02/10 14:16:51;;;;;;;11.93;4.68;;;;;;;16.62;48.98;101847.19;5055081;28;20437;-63
2022/02/10 14:19:28;;;;;;;;;;;;;;;16.62;49.32;101836.38;5055597;28;20210;-63
2022/02/10 14:27:28;;;;;;;20.15;7.68;;;;;;;16.67;49.29;101820.56;5054963;28;20051;-63
2022/02/10 14:29:54;;;;;;;5.30;2.70;;;;;;;16.67;49.05;101812.44;5054672;28;20017;-63
2022/02/10 14:32:23;;;;;;;6.10;3.30;;;;;;;16.69;48.10;101821.31;5054886;28;20028;-63
2022/02/10 14:34:52;;;;;;;4.88;3.28;;;;;;;16.72;49.65;101825.56;5054706;28;20158;-63
2022/02/10 15:35:35;;;;;;;7.25;3.40;;;;;;;16.36;48.03;101856.84;5054019;28;20512;-63
2022/02/10 15:47:49;;;;;;;4.03;3.42;;;;;;;16.35;48.06;101865.09;5053472;28;20083;-63
2022/02/10 15:50:05;;;;;;;7.45;3.78;;;;;;;16.36;47.91;101866.81;5053417;28;20083;-63
2022/02/10 16:19:05;;;;;;;6.43;4.07;;;;;;;16.21;49.78;101855.56;5053681;28;20029;-63
2022/02/10 16:21:43;;;;;;;7.80;4.00;;;;;;;16.21;48.35;101847.44;5053273;28;20039;-63
2022/02/10 16:24:18;;;;;;;5.95;3.50;;;;;;;16.18;48.99;101845.88;5053355;28;20028;-63
2022/02/10 16:26:56;;;;;;;5.95;3.05;;;;;;;16.15;48.24;101848.88;5053216;28;20029;-63
2022/02/10 16:29:28;;;;;;;8.57;2.40;;;;;;;16.09;49.15;101841.31;5037193;28;20021;-63
2022/02/10 16:31:54;;;;;;;8.93;2.57;;;;;;;16.09;48.17;101848.56;5035471;28;20021;-63
2022/02/10 16:34:20;;;;;;;4.47;2.42;;;;;;;16.05;48.29;101842.56;5053498;28;20021;-63
2022/02/10 16:36:46;;;;;;;7.10;2.80;;;;;;;16.02;47.76;101844.72;5035537;28;20495;-63
2022/02/10 16:39:14;;;;;;;4.28;2.75;;;;;;;16.00;48.00;101854.78;5053126;28;20032;-63
2022/02/10 16:41:40;;;;;;;7.35;2.90;;;;;;;15.95;47.85;101851.66;5053149;28;20021;-63
2022/02/10 16:44:06;;;;;;;3.67;1.80;;;;;;;15.95;48.07;101854.38;5053194;28;20024;-63
2022/02/10 16:46:32;;;;;;;7.00;3.17;;;;;;;15.91;48.66;101856.50;5052798;28;20383;-63
2022/02/10 16:48:57;;;;;;;3.45;2.30;;;;;;;15.88;48.48;101845.13;5052893;28;20024;-63
2022/02/10 16:51:25;;;;;;;4.45;2.38;;;;;;;15.87;47.85;101846.09;5053273;28;20028;-63
2022/02/10 16:53:54;;;;;;;4.90;2.40;;;;;;;15.82;48.62;101851.06;5035222;28;20094;-63
2022/02/10 16:56:24;;;;;;;3.88;2.15;;;;;;;15.83;48.77;101858.19;5052708;28;20033;-63
2022/02/10 16:59:05;;;;;;;3.72;2.15;;;;;;;15.81;48.06;101854.75;5052525;28;20021;-63
2022/02/10 17:02:10;;;;;;;3.97;2.17;;;;;;;15.72;48.46;101851.88;5052755;28;20029;-63
2022/02/10 17:04:37;;;;;;;4.47;1.67;;;;;;;15.72;48.47;101856.44;5052150;28;20048;-63
2022/02/10 17:25:42;;;;;;;4.28;2.30;;;;;;;15.45;47.85;101870.50;5056095;28;20454;-63
2022/02/10 17:28:10;;;;;;;3.80;2.15;;;;;;;15.44;47.32;101874.19;5055908;28;20033;-63
2022/02/10 17:33:32;;;;;;;7.50;2.40;;;;;;;15.36;48.43;101871.31;5056138;28;20085;-63
2022/02/10 17:36:07;;;;;;;8.48;2.85;;;;;;;15.31;49.01;101867.31;5055551;28;20021;-63
2022/02/10 17:54:16;;;;;;;2.55;1.02;;;;;;;14.81;47.79;101901.34;5055736;28;20127;-63
2022/02/10 17:56:42;;;;;;;3.25;1.00;;;;;;;14.73;49.10;101898.47;5055393;28;20069;-63
2022/02/10 17:59:08;;;;;;;2.45;1.00;;;;;;;14.71;47.79;101911.22;5055112;28;20036;-63
2022/02/10 18:01:33;;;;;;;2.63;0.70;;;;;;;14.68;47.98;101909.66;5055531;28;20032;-63
2022/02/10 18:03:59;;;;;;;2.70;1.00;;;;;;;14.67;49.14;101916.00;5055251;28;20502;-63
2022/02/10 18:06:31;;;;;;;6.28;1.50;;;;;;;14.67;47.23;101920.53;5055073;28;20107;-63
2022/02/10 18:12:08;;;;;;;1.35;0.70;;;;;;;14.65;48.15;101919.81;5055195;28;20025;-63
2022/02/10 18:14:31;;;;;;;1.63;0.68;;;;;;;14.61;48.13;101921.06;5054732;28;20029;-63
2022/02/10 18:19:44;;;;;;;1.80;0.98;;;;;;;14.52;48.17;101934.31;5054546;28;20029;-63
2022/02/10 18:24:59;;;;;;;2.55;1.52;;;;;;;14.42;47.13;101944.16;5054869;28;20036;-63
2022/02/10 19:07:33;;;;;;;4.03;1.83;;;;;;;13.92;47.57;101960.88;5054223;28;20479;-63
2022/02/10 19:10:00;;;;;;;4.60;1.60;;;;;;;13.97;47.55;101977.50;5039480;28;20020;-63
2022/02/10 19:12:30;;;;;;;3.53;1.70;;;;;;;13.95;48.08;101976.78;5036679;28;20081;-63
2022/02/10 19:15:06;;;;;;;6.00;1.60;;;;;;;13.93;47.19;101973.38;5036963;28;20390;-62
2022/02/10 19:17:33;;;;;;;5.00;1.10;;;;;;;13.94;47.88;101978.63;5054232;28;20419;-63
2022/02/10 19:19:59;;;;;;;1.75;1.00;;;;;;;13.93;48.29;101981.44;5054086;28;20040;-63
2022/02/10 19:22:25;;;;;;;2.60;1.58;;;;;;;13.92;48.47;101990.50;5054047;28;20028;-63
2022/02/10 19:24:53;;;;;;;2.38;1.23;;;;;;;13.89;48.18;101993.44;5053817;28;20159;-63
2022/02/10 19:27:19;;;;;;;2.50;0.95;;;;;;;13.84;47.43;101987.56;5053899;28;20494;-63
2022/02/10 19:29:45;;;;;;;2.28;1.17;;;;;;;13.82;48.51;101998.44;5053868;28;20021;-63
2022/02/10 19:32:15;;;;;;;4.15;1.10;;;;;;;13.79;47.95;102000.53;5035423;28;20174;-63
2022/02/10 19:34:41;;;;;;;20.88;1.83;;;;;;;13.73;47.46;101999.19;5036547;28;20056;-63
2022/02/10 19:37:07;;;;;;;2.55;1.77;;;;;;;13.73;47.61;101999.19;5036064;28;20107;-62
2022/02/10 19:39:35;;;;;;;2.92;0.98;;;;;;;13.71;48.23;102009.19;5053683;28;20108;-62
2022/02/10 19:42:00;;;;;;;1.58;1.20;;;;;;;13.70;48.05;102012.03;5053743;28;20021;-62
2022/02/10 19:44:26;;;;;;;2.15;1.10;;;;;;;13.66;48.25;102008.69;5053799;28;20502;-62
2022/02/10 19:46:52;;;;;;;2.13;0.57;;;;;;;13.57;48.29;102003.19;5053543;28;20032;-62
2022/02/10 19:49:19;;;;;;;1.73;0.50;;;;;;;13.48;48.62;101999.38;5053754;28;20028;-62
2022/02/10 19:51:46;;;;;;;3.92;0.90;;;;;;;13.44;48.67;102014.03;5053594;28;20059;-62
2022/02/10 19:54:12;;;;;;;1.52;0.77;;;;;;;13.40;48.70;102018.78;5036076;28;20033;-62
2022/02/10 19:56:39;;;;;;;3.13;0.88;;;;;;;13.36;48.31;102021.84;5053537;28;20541;-62
2022/02/10 19:59:05;;;;;;;2.13;0.82;;;;;;;13.29;47.70;102034.91;5053591;28;20513;-62
2022/02/10 20:01:30;;;;;;;0.95;0.88;;;;;;;13.19;48.58;102033.03;5053255;28;20103;-62
2022/02/10 20:03:58;;;;;;;1.80;0.90;;;;;;;13.13;48.75;102037.06;5053460;28;20108;-62
2022/02/10 20:06:23;;;;;;;2.30;0.77;;;;;;;13.11;48.70;102038.16;5053419;28;20398;-62
2022/02/10 20:08:49;;;;;;;0.95;0.70;;;;;;;13.08;47.66;102033.00;5053651;28;20017;-62
2022/02/10 20:11:14;;;;;;;3.40;0.80;;;;;;;13.07;48.13;102029.44;5053340;28;20053;-62
2022/02/10 20:13:42;;;;;;;1.80;0.65;;;;;;;13.05;48.58;102028.69;5035489;28;20078;-62
2022/02/10 20:16:08;;;;;;;2.03;0.38;;;;;;;13.03;48.88;102035.16;5053237;28;20021;-62
2022/02/10 20:18:35;;;;;;;0.85;0.50;;;;;;;13.01;48.78;102029.88;5035721;28;20024;-62
2022/02/10 20:21:01;;;;;;;0.60;0.57;;;;;;;13.00;48.90;102030.88;5019189;28;20103;-62
2022/02/10 20:23:27;;;;;;;0.30;0.30;;;;;;;12.98;48.62;102031.94;5019476;28;20047;-62
2022/02/10 20:25:53;;;;;;;1.65;0.63;;;;;;;12.97;48.63;102031.09;5019003;28;20079;-62
2022/02/10 20:28:22;;;;;;;1.67;0.45;;;;;;;12.96;47.77;102034.75;5053226;28;20490;-62
2022/02/10 20:30:47;;;;;;;1.38;0.35;;;;;;;12.97;47.94;102030.22;5053402;28;20029;-62
2022/02/10 20:33:13;;;;;;;0.82;0.40;;;;;;;12.97;48.36;102031.09;5053223;28;20025;-62
2022/02/10 20:35:42;;;;;;;1.20;0.52;;;;;;;12.95;48.15;102024.97;5052948;28;20028;-62
2022/02/10 20:38:10;;;;;;;1.25;0.65;;;;;;;12.99;48.44;102034.50;5053268;28;20474;-62
2022/02/10 20:40:39;;;;;;;1.02;0.60;;;;;;;12.97;47.79;102025.72;5053007;28;20466;-62
2022/02/10 20:43:07;;;;;;;1.05;0.57;;;;;;;13.01;48.45;102032.56;5055199;28;20021;-62
2022/02/10 20:45:34;;;;;;;0.82;0.63;;;;;;;13.04;48.49;102031.47;5039242;28;20029;-63
2022/02/10 20:48:00;;;;;;;2.05;0.60;;;;;;;13.04;48.42;102036.84;5056780;28;20032;-62
2022/02/10 20:50:26;;;;;;;3.67;1.00;;;;;;;13.03;48.14;102025.25;5056442;28;20104;-62
2022/02/10 20:52:51;;;;;;;1.13;1.00;;;;;;;13.05;48.44;102039.44;5056548;28;20123;-62
2022/02/10 20:55:17;;;;;;;1.38;0.85;;;;;;;13.03;47.40;102035.16;5056710;28;20024;-62
2022/02/10 20:57:43;;;;;;;1.65;0.68;;;;;;;13.04;47.16;102048.47;5056479;28;20029;-62
2022/02/10 21:00:11;;;;;;;0.57;0.57;;;;;;;13.04;48.39;102034.16;5056695;28;20021;-62
2022/02/10 21:02:41;;;;;;;0.50;0.50;;;;;;;13.04;47.58;102036.84;5056380;28;20025;-62
2022/02/10 21:05:23;;;;;;;3.08;0.63;;;;;;;13.03;47.27;102036.00;5039431;28;20021;-62
2022/02/10 21:07:59;;;;;;;0.77;0.40;;;;;;;13.02;48.05;102045.03;5056473;28;20406;-62
2022/02/10 21:10:27;;;;;;;2.30;1.15;;;;;;;13.03;48.48;102041.38;5056378;28;20025;-62
2022/02/10 21:12:52;;;;;;;1.92;1.05;;;;;;;13.03;47.72;102038.69;5056469;28;20056;-62
2022/02/10 21:15:25;;;;;;;2.83;0.77;;;;;;;13.01;46.86;102037.09;5038488;28;20075;-62
2022/02/10 21:17:56;;;;;;;1.75;0.63;;;;;;;12.98;48.13;102054.31;5056505;28;20502;-62
2022/02/10 21:20:22;;;;;;;1.77;0.73;;;;;;;12.99;47.53;102050.66;5056508;28;20060;-62
2022/02/10 21:22:57;;;;;;;1.42;0.85;;;;;;;12.99;47.13;102037.19;5056477;28;20029;-62
2022/02/10 21:25:24;;;;;;;1.27;0.60;;;;;;;12.97;47.58;102025.72;5038362;28;20107;-62
2022/02/10 21:27:52;;;;;;;1.17;0.70;;;;;;;12.92;47.96;102017.13;5056059;28;20078;-62
2022/02/10 21:30:19;;;;;;;3.33;0.55;;;;;;;12.95;47.02;102021.44;5056256;28;20044;-62
2022/02/10 21:32:50;;;;;;;1.63;0.63;;;;;;;12.95;47.48;102024.97;5056021;28;20119;-62
2022/02/10 21:38:10;;;;;;;0.97;0.67;;;;;;;12.88;47.36;102031.78;5056272;28;20111;-62
2022/02/10 21:41:13;;;;;;;1.10;0.55;;;;;;;12.82;46.97;102024.16;5037912;28;20342;-62
2022/02/10 21:54:35;;;;;;;0.93;0.50;;;;;;;12.63;47.79;102026.50;5054698;28;20047;-62
2022/02/10 22:03:26;;;;;;;3.75;0.75;;;;;;;12.58;47.74;102031.34;5055906;28;20027;-62
2022/02/10 22:10:24;;;;;;;1.35;0.95;;;;;;;12.49;48.05;102040.09;5055398;28;20032;-62
2022/02/10 22:23:19;;;;;;;2.45;0.82;;;;;;;12.47;47.79;102048.28;5055331;28;20029;-62
2022/02/10 22:25:45;;;;;;;2.45;0.88;;;;;;;12.48;47.52;102044.59;5054938;28;20461;-63
2022/02/10 22:28:26;;;;;;;2.30;0.88;;;;;;;12.50;47.84;102041.81;5054920;28;20398;-63
2022/02/10 22:31:23;;;;;;;1.52;0.75;;;;;;;12.54;47.15;102048.66;5039283;28;20033;-62
2022/02/10 22:33:55;;;;;;;0.68;0.60;;;;;;;12.56;47.39;102052.13;5054089;28;20045;-63
2022/02/10 22:36:22;;;;;;;3.72;0.70;;;;;;;12.56;47.25;102054.81;5054695;28;20029;-63
2022/02/10 22:38:50;;;;;;;0.98;0.55;;;;;;;12.60;47.85;102058.97;5054838;28;20074;-63
2022/02/10 22:41:16;;;;;;;0.70;0.63;;;;;;;12.62;48.19;102057.03;5055150;28;20387;-63
2022/02/10 22:43:47;;;;;;;1.80;0.70;;;;;;;12.62;47.85;102057.03;5054543;28;20029;-62
2022/02/10 22:46:14;;;;;;;1.15;0.70;;;;;;;12.65;47.75;102060.34;5054330;28;20454;-62
2022/02/10 22:48:44;;;;;;;4.95;1.00;;;;;;;12.66;48.21;102069.28;5054602;28;20025;-62
2022/02/10 22:51:10;;;;;;;1.25;0.70;;;;;;;12.65;47.68;102062.19;5054468;28;20025;-63
2022/02/10 22:53:36;;;;;;;1.00;0.90;;;;;;;12.67;48.25;102062.94;5054265;28;20041;-63
2022/02/10 22:56:01;;;;;;;3.60;0.70;;;;;;;12.66;47.59;102058.53;5054538;28;20402;-63
2022/02/10 22:58:28;;;;;;;3.50;0.98;;;;;;;12.65;47.22;102059.47;5054253;28;20025;-63
2022/02/10 23:00:54;;;;;;;7.70;0.95;;;;;;;12.63;47.59;102050.69;5054411;28;20029;-63
2022/02/10 23:03:24;;;;;;;3.65;0.85;;;;;;;12.59;48.57;102055.41;5036551;28;20387;-62
2022/02/10 23:05:51;;;;;;;1.63;0.90;;;;;;;12.59;47.76;102052.72;5054078;28;20496;-63
2022/02/10 23:08:17;;;;;;;0.68;0.63;;;;;;;12.57;47.94;102054.69;5036264;28;20524;-62
2022/02/10 23:13:08;;;;;;;1.45;0.90;;;;;;;12.54;47.27;102054.03;5036667;28;20111;-63
2022/02/10 23:15:37;;;;;;;2.00;1.00;;;;;;;12.52;48.14;102050.63;5019714;28;20021;-63
2022/02/10 23:18:13;;;;;;;2.10;0.85;;;;;;;12.50;47.46;102052.56;5054214;28;20021;-63
2022/02/10 23:20:39;;;;;;;1.33;0.90;;;;;;;12.48;47.47;102055.34;5054441;28;20060;-63
2022/02/10 23:23:06;;;;;;;1.13;0.75;;;;;;;12.48;48.40;102054.50;5054132;28;20110;-63
2022/02/10 23:25:32;;;;;;;1.85;1.00;;;;;;;12.44;47.52;102048.50;5054014;28;20121;-63
2022/02/10 23:27:58;;;;;;;3.22;1.27;;;;;;;12.40;47.36;102040.75;5053888;28;20518;-63
2022/02/10 23:30:24;;;;;;;1.77;0.93;;;;;;;12.41;47.82;102062.16;5053717;28;20017;-63
2022/02/10 23:32:51;;;;;;;1.25;0.95;;;;;;;12.38;48.01;102061.50;5053754;28;20028;-63
2022/02/10 23:36:31;;;;;;;1.38;0.80;;;;;;;12.39;48.11;102060.53;5053626;28;20074;-63
2022/02/10 23:38:02;;;;;;;1.70;0.70;;;;;;;12.34;48.33;102051.97;5025131;28;20037;-63
2022/02/10 23:40:29;;;;;;;1.30;0.85;;;;;;;12.33;47.66;102061.84;5053504;28;20052;-63
2022/02/10 23:42:56;;;;;;;1.52;0.90;;;;;;;12.29;47.54;102054.97;5054008;28;20360;-63
2022/02/10 23:45:25;;;;;;;3.53;1.30;;;;;;;12.27;48.49;102055.09;5053482;28;20029;-63
2022/02/10 23:47:51;;;;;;;7.15;1.10;;;;;;;12.21;48.06;102052.81;5053430;28;20075;-63
2022/02/10 23:50:21;;;;;;;1.92;1.13;;;;;;;12.19;47.59;102052.09;5053430;28;20025;-63
2022/02/10 23:52:51;;;;;;;3.60;1.00;;;;;;;12.19;47.76;102053.91;5053552;28;20530;-63
2022/02/10 23:55:22;;;;;;;5.65;1.98;;;;;;;12.15;47.64;102061.31;5035679;28;20083;-63
2022/02/10 23:58:03;;;;;;;2.72;1.40;;;;;;;12.08;47.99;102054.69;5036789;28;20398;-63
